createdAt,value
2022-11-29T00:03:01.181Z,3.23
2022-11-29T00:06:09.306Z,3.24
2022-11-29T00:09:15.037Z,3.26
2022-11-29T00:12:18.761Z,3.22
2022-11-29T00:15:27.226Z,3.25
2022-11-29T00:18:30.938Z,3.25
2022-11-29T00:21:34.642Z,3.22
2022-11-29T00:24:39.738Z,3.24
2022-11-29T00:27:43.346Z,3.30
2022-11-29T00:30:47.338Z,3.26
2022-11-29T00:33:52.354Z,3.24
2022-11-29T00:36:56.081Z,3.28
2022-11-29T00:40:01.254Z,3.26
2022-11-29T00:43:04.919Z,3.28
2022-11-29T00:46:09.524Z,3.28
2022-11-29T00:49:13.342Z,3.25
2022-11-29T00:52:16.965Z,3.31
2022-11-29T00:55:22.185Z,3.29
2022-11-29T00:58:25.798Z,3.30
2022-11-29T01:01:29.502Z,3.29
2022-11-29T01:04:33.178Z,3.30
2022-11-29T01:07:36.876Z,3.26
2022-11-29T01:10:43.071Z,3.32
2022-11-29T01:13:47.437Z,3.25
2022-11-29T01:16:51.052Z,3.31
2022-11-29T01:19:54.911Z,3.32
2022-11-29T01:22:58.768Z,3.31
2022-11-29T01:26:06.895Z,3.25
2022-11-29T01:29:14.433Z,3.33
2022-11-29T01:32:18.062Z,3.37
2022-11-29T01:35:21.694Z,3.35
2022-11-29T01:38:25.293Z,3.36
2022-11-29T01:41:33.277Z,3.37
2022-11-29T01:45:06.708Z,3.32
2022-11-29T01:48:11.680Z,3.29
2022-11-29T01:51:16.081Z,3.25
2022-11-29T01:54:21.311Z,3.29
2022-11-29T01:57:27.758Z,3.31
2022-11-29T02:00:31.578Z,3.26
2022-11-29T02:03:35.284Z,3.32
2022-11-29T02:06:40.825Z,3.29
2022-11-29T02:09:44.580Z,3.30
2022-11-29T02:13:02.942Z,3.32
2022-11-29T02:16:16.934Z,3.31
2022-11-29T02:20:07.148Z,3.30
2022-11-29T02:24:13.458Z,3.23
2022-11-29T02:28:22.210Z,3.25
2022-11-29T02:32:08.731Z,3.29
2022-11-29T02:35:36.851Z,3.23
2022-11-29T02:39:12.661Z,3.29
2022-11-29T02:42:56.855Z,3.23
2022-11-29T02:46:20.013Z,3.28
2022-11-29T02:49:53.336Z,3.29
2022-11-29T02:53:10.698Z,3.29
2022-11-29T02:56:28.349Z,3.31
2022-11-29T03:00:00.473Z,3.32
2022-11-29T03:03:18.167Z,3.31
2022-11-29T03:06:34.745Z,3.32
2022-11-29T03:09:45.432Z,3.26
2022-11-29T03:12:54.047Z,3.26
2022-11-29T03:16:10.704Z,3.37
2022-11-29T03:19:37.906Z,3.26
2022-11-29T03:22:53.377Z,3.33
2022-11-29T03:26:08.731Z,3.28
2022-11-29T03:29:28.101Z,3.27
2022-11-29T03:32:43.659Z,3.29
2022-11-29T03:35:57.868Z,3.30
2022-11-29T03:39:09.030Z,3.28
2022-11-29T03:42:22.951Z,3.32
2022-11-29T03:45:34.002Z,3.27
2022-11-29T03:48:45.977Z,3.27
2022-11-29T03:52:04.126Z,3.26
2022-11-29T03:55:31.633Z,3.29
2022-11-29T03:58:55.675Z,3.24
2022-11-29T04:02:50.717Z,3.28
2022-11-29T04:06:22.837Z,3.30
2022-11-29T04:09:53.203Z,3.29
2022-11-29T04:13:29.204Z,3.34
2022-11-29T04:17:28.932Z,3.24
2022-11-29T04:21:26.403Z,3.25
2022-11-29T04:25:07.355Z,3.26
2022-11-29T04:29:01.342Z,3.32
2022-11-29T04:32:58.291Z,3.29
2022-11-29T04:36:51.433Z,3.26
2022-11-29T04:40:27.041Z,3.31
2022-11-29T04:44:10.503Z,3.25
2022-11-29T04:47:44.020Z,3.31
2022-11-29T04:51:05.712Z,3.29
2022-11-29T04:54:21.898Z,3.34
2022-11-29T04:57:38.397Z,3.25
2022-11-29T05:00:56.526Z,3.28
2022-11-29T05:04:15.061Z,3.28
2022-11-29T05:07:33.041Z,3.26
2022-11-29T05:10:49.547Z,3.35
2022-11-29T05:14:03.165Z,3.35
2022-11-29T05:17:34.703Z,3.32
2022-11-29T05:20:54.149Z,3.30
2022-11-29T05:24:18.863Z,3.28
2022-11-29T05:27:39.794Z,3.29
2022-11-29T05:31:19.859Z,3.28
2022-11-29T05:34:46.821Z,3.28
2022-11-29T05:37:57.633Z,3.23
2022-11-29T05:41:24.520Z,3.21
2022-11-29T05:44:39.166Z,3.26
2022-11-29T05:47:52.125Z,3.23
2022-11-29T05:51:18.121Z,3.24
2022-11-29T05:54:46.443Z,3.23
2022-11-29T05:58:17.799Z,3.21
2022-11-29T06:01:29.977Z,3.22
2022-11-29T06:04:59.910Z,3.25
2022-11-29T06:08:12.322Z,3.26
2022-11-29T06:11:25.859Z,3.22
2022-11-29T06:14:55.491Z,3.26
2022-11-29T06:18:18.398Z,3.22
2022-11-29T06:21:39.143Z,3.28
2022-11-29T06:25:17.252Z,3.24
2022-11-29T06:28:41.180Z,3.21
2022-11-29T06:31:53.795Z,3.28
2022-11-29T06:35:05.806Z,3.26
2022-11-29T06:38:22.470Z,3.24
2022-11-29T06:41:27.039Z,3.26
2022-11-29T06:44:34.034Z,3.21
2022-11-29T06:47:46.035Z,3.23
2022-11-29T06:51:01.929Z,3.23
2022-11-29T06:54:25.445Z,3.19
2022-11-29T06:57:44.850Z,3.28
2022-11-29T07:01:04.531Z,3.24
2022-11-29T07:04:46.250Z,3.22
2022-11-29T07:07:51.360Z,3.22
2022-11-29T07:10:56.212Z,3.26
2022-11-29T07:14:00.818Z,3.24
2022-11-29T07:17:22.196Z,3.24
2022-11-29T07:20:37.006Z,3.26
2022-11-29T07:23:53.098Z,3.23
2022-11-29T07:27:07.093Z,3.22
2022-11-29T07:30:16.117Z,3.24
2022-11-29T07:33:35.751Z,3.28
2022-11-29T07:36:50.887Z,3.29
2022-11-29T07:40:04.042Z,3.25
2022-11-29T07:43:27.074Z,3.28
2022-11-29T07:46:30.941Z,3.31
2022-11-29T07:49:36.177Z,3.29
2022-11-29T07:52:39.917Z,3.25
2022-11-29T07:55:43.803Z,3.29
2022-11-29T07:58:47.871Z,3.26
2022-11-29T08:01:51.725Z,3.29
2022-11-29T08:04:57.162Z,3.30
2022-11-29T08:08:01.378Z,3.32
2022-11-29T08:11:12.177Z,3.30
2022-11-29T08:14:15.866Z,3.31
2022-11-29T08:17:19.788Z,3.38
2022-11-29T08:20:25.389Z,3.37
2022-11-29T08:23:29.048Z,3.41
2022-11-29T08:26:32.790Z,3.35
2022-11-29T08:29:36.603Z,3.31
2022-11-29T08:32:40.128Z,3.36
2022-11-29T08:35:45.141Z,3.40
2022-11-29T08:38:50.995Z,3.40
2022-11-29T08:41:56.286Z,3.53
2022-11-29T08:45:00.090Z,3.52
2022-11-29T08:48:03.715Z,3.44
2022-11-29T08:51:08.962Z,3.46
2022-11-29T08:54:14.258Z,3.46
2022-11-29T08:57:39.144Z,3.49
2022-11-29T09:00:47.026Z,3.54
2022-11-29T09:04:07.698Z,3.53
2022-11-29T09:07:13.958Z,3.56
2022-11-29T09:10:17.677Z,3.60
2022-11-29T09:13:21.299Z,3.68
2022-11-29T09:16:28.160Z,3.65
2022-11-29T09:19:31.971Z,3.69
2022-11-29T09:22:36.966Z,3.69
2022-11-29T09:25:40.940Z,3.69
2022-11-29T09:28:44.851Z,3.77
2022-11-29T09:31:48.639Z,3.77
2022-11-29T09:34:52.266Z,3.74
2022-11-29T09:37:57.241Z,3.71
2022-11-29T09:41:16.565Z,3.71
2022-11-29T09:44:32.286Z,3.68
2022-11-29T09:48:12.305Z,3.79
2022-11-29T09:51:29.110Z,3.79
2022-11-29T09:54:49.283Z,3.75
2022-11-29T09:57:56.685Z,3.86
2022-11-29T10:01:07.821Z,3.90
2022-11-29T10:04:20.417Z,3.91
2022-11-29T10:07:34.618Z,3.85
2022-11-29T10:10:45.934Z,3.81
2022-11-29T10:13:57.662Z,3.95
2022-11-29T10:17:13.103Z,3.94
2022-11-29T10:20:21.517Z,3.95
2022-11-29T10:23:32.446Z,3.98
2022-11-29T10:26:38.615Z,4.07
2022-11-29T10:29:42.218Z,4.07
2022-11-29T10:32:50.117Z,4.12
2022-11-29T10:35:59.411Z,4.10
2022-11-29T10:39:13.017Z,4.13
2022-11-29T10:42:40.131Z,4.21
2022-11-29T10:45:50.752Z,4.13
2022-11-29T10:48:55.384Z,4.16
2022-11-29T10:51:59.245Z,4.30
2022-11-29T10:55:03.999Z,4.37
2022-11-29T10:58:17.454Z,4.35
2022-11-29T11:01:21.360Z,4.26
2022-11-29T11:04:35.616Z,4.25
2022-11-29T11:07:40.054Z,4.28
2022-11-29T11:10:58.617Z,4.22
2022-11-29T11:14:20.695Z,4.31
2022-11-29T11:17:27.497Z,4.39
2022-11-29T11:20:33.943Z,4.34
2022-11-29T11:23:43.020Z,4.43
2022-11-29T11:26:47.327Z,4.47
2022-11-29T11:29:54.499Z,4.47
2022-11-29T11:33:20.547Z,4.38
2022-11-29T11:36:27.231Z,4.34
2022-11-29T11:39:33.731Z,4.44
2022-11-29T11:42:42.801Z,4.42
2022-11-29T11:45:55.590Z,4.44
2022-11-29T11:48:59.989Z,4.49
2022-11-29T11:52:07.999Z,4.59
2022-11-29T11:55:31.621Z,4.60
2022-11-29T11:58:40.530Z,4.52
2022-11-29T12:01:45.620Z,4.56
2022-11-29T12:04:49.502Z,4.63
2022-11-29T12:08:07.943Z,4.57
2022-11-29T12:11:17.094Z,4.56
2022-11-29T12:14:33.898Z,4.58
2022-11-29T12:17:45.339Z,4.61
2022-11-29T12:20:57.249Z,4.60
2022-11-29T12:24:17.623Z,4.58
2022-11-29T12:27:21.307Z,4.56
2022-11-29T12:30:25.723Z,4.51
2022-11-29T12:33:46.285Z,4.63
2022-11-29T12:36:58.842Z,4.62
2022-11-29T12:40:14.494Z,4.56
2022-11-29T12:43:37.413Z,4.60
2022-11-29T12:46:45.599Z,4.59
2022-11-29T12:50:05.102Z,4.67
2022-11-29T12:53:29.312Z,4.62
2022-11-29T12:56:45.089Z,4.73
2022-11-29T13:00:10.568Z,4.71
2022-11-29T13:03:25.271Z,4.70
2022-11-29T13:06:42.751Z,4.75
2022-11-29T13:10:18.569Z,4.78
2022-11-29T13:13:36.421Z,4.73
2022-11-29T13:16:56.254Z,4.71
2022-11-29T13:20:10.876Z,4.68
2022-11-29T13:23:45.436Z,4.69
2022-11-29T13:26:54.409Z,4.66
2022-11-29T13:30:01.644Z,4.70
2022-11-29T13:33:17.937Z,4.72
2022-11-29T13:36:36.047Z,4.72
2022-11-29T13:40:02.731Z,4.74
2022-11-29T13:43:19.386Z,4.76
2022-11-29T13:46:35.120Z,4.80
2022-11-29T13:49:58.734Z,4.76
2022-11-29T13:53:07.621Z,4.75
2022-11-29T13:56:43.140Z,4.73
2022-11-29T13:59:51.057Z,4.70
2022-11-29T14:02:56.147Z,4.68
2022-11-29T14:06:18.523Z,4.65
2022-11-29T14:09:29.336Z,4.60
2022-11-29T14:12:41.066Z,4.59
2022-11-29T14:15:45.455Z,4.61
2022-11-29T14:19:22.500Z,4.59
2022-11-29T14:22:26.215Z,4.46
2022-11-29T14:28:55.972Z,4.42
2022-11-29T14:32:01.170Z,4.42
2022-11-29T14:35:18.159Z,4.44
2022-11-29T14:38:31.659Z,4.47
2022-11-29T14:41:55.351Z,4.40
2022-11-29T14:45:04.911Z,4.36
2022-11-29T14:48:28.007Z,4.40
2022-11-29T14:51:34.552Z,4.43
2022-11-29T14:54:55.427Z,4.36
2022-11-29T14:58:22.303Z,4.37
2022-11-29T15:01:27.613Z,4.39
2022-11-29T15:04:36.507Z,4.35
2022-11-29T15:07:45.443Z,4.35
2022-11-29T15:10:53.707Z,4.33
2022-11-29T15:14:06.465Z,4.29
2022-11-29T15:17:27.585Z,4.30
2022-11-29T15:20:51.436Z,4.28
2022-11-29T15:24:03.909Z,4.28
2022-11-29T15:27:07.580Z,4.26
2022-11-29T15:30:28.550Z,4.23
2022-11-29T15:33:37.990Z,4.23
2022-11-29T15:36:45.394Z,4.26
2022-11-29T15:39:49.135Z,4.23
2022-11-29T15:43:00.158Z,4.18
2022-11-29T15:46:04.088Z,4.24
2022-11-29T15:49:22.948Z,4.22
2022-11-29T15:52:31.937Z,4.20
2022-11-29T15:55:35.924Z,4.17
2022-11-29T15:58:40.349Z,4.18
2022-11-29T16:01:47.507Z,4.15
2022-11-29T16:04:59.355Z,4.18
2022-11-29T16:08:08.583Z,4.12
2022-11-29T16:11:21.882Z,4.14
2022-11-29T16:14:29.249Z,4.14
2022-11-29T16:17:36.327Z,4.11
2022-11-29T16:20:41.944Z,4.11
2022-11-29T16:23:46.791Z,4.10
2022-11-29T16:26:52.499Z,4.08
2022-11-29T16:29:57.100Z,4.10
2022-11-29T16:33:03.487Z,4.10
2022-11-29T16:36:18.022Z,4.06
2022-11-29T16:39:25.319Z,4.07
2022-11-29T16:42:31.864Z,4.07
2022-11-29T16:45:38.570Z,4.07
2022-11-29T16:48:42.445Z,4.09
2022-11-29T16:51:49.203Z,4.09
2022-11-29T16:54:53.145Z,4.08
2022-11-29T16:57:56.841Z,4.09
2022-11-29T17:01:01.324Z,4.07
2022-11-29T17:04:05.031Z,4.07
2022-11-29T17:07:19.010Z,4.05
2022-11-29T17:10:26.737Z,4.08
2022-11-29T17:13:30.431Z,4.06
2022-11-29T17:16:34.209Z,4.08
2022-11-29T17:19:38.284Z,4.08
2022-11-29T17:22:43.551Z,4.07
2022-11-29T17:25:56.659Z,4.09
2022-11-29T17:29:00.230Z,4.03
2022-11-29T17:32:03.787Z,4.05
2022-11-29T17:35:08.370Z,4.04
2022-11-29T17:38:13.391Z,4.04
2022-11-29T17:41:22.187Z,4.05
2022-11-29T17:44:25.765Z,4.02
2022-11-29T17:47:29.432Z,3.99
2022-11-29T17:50:33.121Z,4.04
2022-11-29T17:53:38.386Z,3.99
2022-11-29T17:56:42.000Z,3.99
2022-11-29T17:59:45.876Z,3.95
2022-11-29T18:02:49.807Z,3.97
2022-11-29T18:05:53.494Z,3.93
2022-11-29T18:09:00.499Z,3.91
2022-11-29T18:12:04.213Z,3.94
2022-11-29T18:15:08.886Z,3.94
2022-11-29T18:18:12.517Z,3.90
2022-11-29T18:21:16.528Z,3.91
2022-11-29T18:24:23.019Z,3.92
2022-11-29T18:27:26.830Z,3.89
2022-11-29T18:30:30.580Z,3.91
2022-11-29T18:33:34.218Z,3.90
2022-11-29T18:36:43.023Z,3.90
2022-11-29T18:39:48.573Z,3.90
2022-11-29T18:42:52.425Z,3.84
2022-11-29T18:45:56.104Z,3.81
2022-11-29T18:49:01.497Z,3.84
2022-11-29T18:52:06.436Z,3.80
2022-11-29T18:55:11.596Z,3.80
2022-11-29T18:58:15.275Z,3.75
2022-11-29T19:01:21.027Z,3.75
2022-11-29T19:04:24.843Z,3.75
2022-11-29T19:07:29.401Z,3.77
2022-11-29T19:10:34.490Z,3.80
2022-11-29T19:13:38.969Z,3.75
2022-11-29T19:16:45.549Z,3.73
2022-11-29T19:19:49.189Z,3.71
2022-11-29T19:22:57.473Z,3.69
2022-11-29T19:26:06.738Z,3.71
2022-11-29T19:29:11.074Z,3.71
2022-11-29T19:32:14.975Z,3.72
2022-11-29T19:35:18.810Z,3.68
2022-11-29T19:38:22.432Z,3.71
2022-11-29T19:41:29.882Z,3.68
2022-11-29T19:44:54.204Z,3.67
2022-11-29T19:47:57.618Z,3.72
2022-11-29T19:51:01.569Z,3.68
2022-11-29T19:54:08.506Z,3.66
2022-11-29T19:57:13.592Z,3.69
2022-11-29T20:00:19.174Z,3.65
2022-11-29T20:03:22.926Z,3.64
2022-11-29T20:06:30.426Z,3.64
2022-11-29T20:09:34.384Z,3.58
2022-11-29T20:12:39.842Z,3.59
2022-11-29T20:15:43.617Z,3.62
2022-11-29T20:18:51.089Z,3.57
2022-11-29T20:21:55.378Z,3.60
2022-11-29T20:24:59.311Z,3.56
2022-11-29T20:28:06.863Z,3.57
2022-11-29T20:31:13.525Z,3.58
2022-11-29T20:34:18.431Z,3.57
2022-11-29T20:38:11.434Z,3.58
2022-11-29T20:41:26.219Z,3.58
2022-11-29T20:44:39.943Z,3.59
2022-11-29T20:47:54.611Z,3.61
2022-11-29T20:51:03.098Z,3.59
2022-11-29T20:54:06.962Z,3.57
2022-11-29T20:57:10.918Z,3.55
2022-11-29T21:00:18.066Z,3.60
2022-11-29T21:03:23.044Z,3.56
2022-11-29T21:06:27.995Z,3.57
2022-11-29T21:09:32.038Z,3.55
2022-11-29T21:12:36.843Z,3.53
2022-11-29T21:15:43.892Z,3.51
2022-11-29T21:18:51.179Z,3.52
2022-11-29T21:22:13.762Z,3.53
2022-11-29T21:25:27.664Z,3.51
2022-11-29T21:28:39.023Z,3.49
2022-11-29T21:31:44.977Z,3.49
2022-11-29T21:34:48.857Z,3.48
2022-11-29T21:37:58.357Z,3.48
2022-11-29T21:41:02.336Z,3.46
2022-11-29T21:44:07.758Z,3.46
2022-11-29T21:47:13.529Z,3.47
2022-11-29T21:50:17.337Z,3.46
2022-11-29T21:53:21.010Z,3.48
2022-11-29T21:56:24.700Z,3.46
2022-11-29T21:59:28.303Z,3.50
2022-11-29T22:02:33.573Z,3.44
2022-11-29T22:05:37.875Z,3.43
2022-11-29T22:08:43.628Z,3.41
2022-11-29T22:11:47.506Z,3.41
2022-11-29T22:14:51.618Z,3.42
2022-11-29T22:17:57.039Z,3.40
2022-11-29T22:21:06.654Z,3.41
2022-11-29T22:24:11.525Z,3.38
2022-11-29T22:27:18.154Z,3.41
2022-11-29T22:30:22.293Z,3.42
2022-11-29T22:33:27.353Z,3.40
2022-11-29T22:36:31.134Z,3.41
2022-11-29T22:39:34.879Z,3.37
2022-11-29T22:42:39.252Z,3.39
2022-11-29T22:45:42.941Z,3.41
2022-11-29T22:48:52.800Z,3.44
2022-11-29T22:51:56.614Z,3.44
2022-11-29T22:55:04.718Z,3.41
2022-11-29T22:58:08.878Z,3.42
2022-11-29T23:01:15.188Z,3.38
2022-11-29T23:04:20.639Z,3.38
2022-11-29T23:07:24.362Z,3.29
2022-11-29T23:10:27.967Z,3.34
2022-11-29T23:13:32.607Z,3.35
2022-11-29T23:16:36.531Z,3.34
2022-11-29T23:19:41.687Z,3.37
2022-11-29T23:22:45.312Z,3.33
2022-11-29T23:25:50.649Z,3.34
2022-11-29T23:28:55.871Z,3.30
2022-11-29T23:31:59.483Z,3.34
2022-11-29T23:35:04.647Z,3.31
2022-11-29T23:38:08.715Z,3.35
2022-11-29T23:41:13.187Z,3.34
2022-11-29T23:44:16.784Z,3.30
2022-11-29T23:47:20.354Z,3.29
2022-11-29T23:50:25.974Z,3.32
2022-11-29T23:53:30.766Z,3.33
2022-11-29T23:56:35.580Z,3.33
2022-11-29T23:59:39.337Z,3.33
